sensor_id;sensor_type;location;lat;lon;timestamp;P1;durP1;ratioP1;P2;durP2;ratioP2
59788;SDS011;47353;51.614;5.530;2023-09-18T00:00:50;24.10;;;20.75;;
59788;SDS011;47353;51.614;5.530;2023-09-18T00:03:16;26.50;;;21.33;;
59788;SDS011;47353;51.614;5.530;2023-09-18T00:05:48;27.98;;;21.17;;
59788;SDS011;47353;51.614;5.530;2023-09-18T00:08:14;24.30;;;21.55;;
59788;SDS011;47353;51.614;5.530;2023-09-18T00:10:40;26.60;;;21.83;;
59788;SDS011;47353;51.614;5.530;2023-09-18T00:13:06;24.77;;;22.10;;
59788;SDS011;47353;51.614;5.530;2023-09-18T00:15:32;26.85;;;21.67;;
59788;SDS011;47353;51.614;5.530;2023-09-18T00:17:57;26.10;;;22.10;;
59788;SDS011;47353;51.614;5.530;2023-09-18T00:20:22;24.42;;;21.85;;
59788;SDS011;47353;51.614;5.530;2023-09-18T00:22:54;29.48;;;22.92;;
59788;SDS011;47353;51.614;5.530;2023-09-18T00:25:20;27.10;;;22.48;;
59788;SDS011;47353;51.614;5.530;2023-09-18T00:27:47;27.67;;;22.63;;
59788;SDS011;47353;51.614;5.530;2023-09-18T00:30:12;24.67;;;22.08;;
59788;SDS011;47353;51.614;5.530;2023-09-18T00:32:37;25.58;;;22.15;;
59788;SDS011;47353;51.614;5.530;2023-09-18T00:35:03;27.10;;;21.95;;
59788;SDS011;47353;51.614;5.530;2023-09-18T00:37:29;26.88;;;22.70;;
59788;SDS011;47353;51.614;5.530;2023-09-18T00:39:54;26.17;;;23.23;;
59788;SDS011;47353;51.614;5.530;2023-09-18T00:42:20;24.77;;;22.08;;
59788;SDS011;47353;51.614;5.530;2023-09-18T00:44:47;27.67;;;22.17;;
59788;SDS011;47353;51.614;5.530;2023-09-18T00:47:14;28.92;;;22.02;;
59788;SDS011;47353;51.614;5.530;2023-09-18T00:49:40;25.60;;;22.08;;
59788;SDS011;47353;51.614;5.530;2023-09-18T00:52:08;25.58;;;20.67;;
59788;SDS011;47353;51.614;5.530;2023-09-18T00:54:35;24.08;;;21.42;;
59788;SDS011;47353;51.614;5.530;2023-09-18T00:57:03;25.52;;;21.90;;
59788;SDS011;47353;51.614;5.530;2023-09-18T00:59:28;27.90;;;21.27;;
59788;SDS011;47353;51.614;5.530;2023-09-18T01:01:54;23.92;;;20.83;;
59788;SDS011;47353;51.614;5.530;2023-09-18T01:04:20;25.00;;;21.35;;
59788;SDS011;47353;51.614;5.530;2023-09-18T01:06:47;24.70;;;21.92;;
59788;SDS011;47353;51.614;5.530;2023-09-18T01:09:14;27.33;;;22.00;;
59788;SDS011;47353;51.614;5.530;2023-09-18T01:11:57;24.55;;;21.95;;
59788;SDS011;47353;51.614;5.530;2023-09-18T01:14:37;26.70;;;21.17;;
59788;SDS011;47353;51.614;5.530;2023-09-18T01:17:05;26.10;;;21.15;;
59788;SDS011;47353;51.614;5.530;2023-09-18T01:19:39;23.60;;;20.80;;
59788;SDS011;47353;51.614;5.530;2023-09-18T01:22:18;23.73;;;20.70;;
59788;SDS011;47353;51.614;5.530;2023-09-18T01:24:45;22.52;;;19.60;;
59788;SDS011;47353;51.614;5.530;2023-09-18T01:27:16;25.25;;;20.65;;
59788;SDS011;47353;51.614;5.530;2023-09-18T01:29:42;24.98;;;20.88;;
59788;SDS011;47353;51.614;5.530;2023-09-18T01:32:08;26.95;;;20.17;;
59788;SDS011;47353;51.614;5.530;2023-09-18T01:34:38;25.95;;;20.55;;
59788;SDS011;47353;51.614;5.530;2023-09-18T01:37:07;23.95;;;19.77;;
59788;SDS011;47353;51.614;5.530;2023-09-18T01:39:35;23.90;;;19.85;;
59788;SDS011;47353;51.614;5.530;2023-09-18T01:42:01;24.15;;;19.27;;
59788;SDS011;47353;51.614;5.530;2023-09-18T01:44:32;26.83;;;18.98;;
59788;SDS011;47353;51.614;5.530;2023-09-18T01:46:59;24.35;;;18.95;;
59788;SDS011;47353;51.614;5.530;2023-09-18T01:49:33;23.38;;;17.73;;
59788;SDS011;47353;51.614;5.530;2023-09-18T01:52:01;21.95;;;17.25;;
59788;SDS011;47353;51.614;5.530;2023-09-18T01:54:28;20.73;;;15.00;;
59788;SDS011;47353;51.614;5.530;2023-09-18T01:56:54;18.98;;;15.10;;
59788;SDS011;47353;51.614;5.530;2023-09-18T01:59:19;23.80;;;15.50;;
59788;SDS011;47353;51.614;5.530;2023-09-18T02:01:46;20.05;;;14.63;;
59788;SDS011;47353;51.614;5.530;2023-09-18T02:04:12;21.05;;;14.05;;
59788;SDS011;47353;51.614;5.530;2023-09-18T02:06:37;19.55;;;13.38;;
59788;SDS011;47353;51.614;5.530;2023-09-18T02:09:03;16.95;;;13.15;;
59788;SDS011;47353;51.614;5.530;2023-09-18T02:11:28;18.65;;;13.77;;
59788;SDS011;47353;51.614;5.530;2023-09-18T02:13:54;20.23;;;12.32;;
59788;SDS011;47353;51.614;5.530;2023-09-18T02:16:21;18.30;;;12.45;;
59788;SDS011;47353;51.614;5.530;2023-09-18T02:18:49;17.73;;;12.55;;
59788;SDS011;47353;51.614;5.530;2023-09-18T02:21:19;19.00;;;12.77;;
59788;SDS011;47353;51.614;5.530;2023-09-18T02:23:50;18.73;;;12.23;;
59788;SDS011;47353;51.614;5.530;2023-09-18T02:26:20;14.98;;;11.88;;
59788;SDS011;47353;51.614;5.530;2023-09-18T02:28:45;18.20;;;11.45;;
59788;SDS011;47353;51.614;5.530;2023-09-18T02:31:11;14.82;;;10.82;;
59788;SDS011;47353;51.614;5.530;2023-09-18T02:33:37;14.27;;;10.95;;
59788;SDS011;47353;51.614;5.530;2023-09-18T02:36:03;15.27;;;11.45;;
59788;SDS011;47353;51.614;5.530;2023-09-18T02:38:29;17.90;;;10.90;;
59788;SDS011;47353;51.614;5.530;2023-09-18T02:40:57;16.30;;;10.80;;
59788;SDS011;47353;51.614;5.530;2023-09-18T02:43:23;14.88;;;10.55;;
59788;SDS011;47353;51.614;5.530;2023-09-18T02:45:49;15.02;;;11.48;;
59788;SDS011;47353;51.614;5.530;2023-09-18T02:48:15;18.83;;;11.88;;
59788;SDS011;47353;51.614;5.530;2023-09-18T02:50:41;14.35;;;11.15;;
59788;SDS011;47353;51.614;5.530;2023-09-18T02:53:06;14.00;;;10.18;;
59788;SDS011;47353;51.614;5.530;2023-09-18T02:55:41;14.10;;;10.70;;
59788;SDS011;47353;51.614;5.530;2023-09-18T02:58:06;15.45;;;10.50;;
59788;SDS011;47353;51.614;5.530;2023-09-18T03:00:34;14.18;;;10.30;;
59788;SDS011;47353;51.614;5.530;2023-09-18T03:02:59;17.30;;;11.13;;
59788;SDS011;47353;51.614;5.530;2023-09-18T03:05:25;16.75;;;10.32;;
59788;SDS011;47353;51.614;5.530;2023-09-18T03:07:51;15.95;;;10.32;;
59788;SDS011;47353;51.614;5.530;2023-09-18T03:10:16;17.67;;;10.20;;
59788;SDS011;47353;51.614;5.530;2023-09-18T03:12:43;15.98;;;9.93;;
59788;SDS011;47353;51.614;5.530;2023-09-18T03:15:12;14.90;;;9.45;;
59788;SDS011;47353;51.614;5.530;2023-09-18T03:17:37;18.80;;;9.90;;
59788;SDS011;47353;51.614;5.530;2023-09-18T03:20:06;20.38;;;10.50;;
59788;SDS011;47353;51.614;5.530;2023-09-18T03:22:32;15.00;;;9.57;;
59788;SDS011;47353;51.614;5.530;2023-09-18T03:24:57;16.63;;;9.75;;
59788;SDS011;47353;51.614;5.530;2023-09-18T03:27:23;17.27;;;8.68;;
59788;SDS011;47353;51.614;5.530;2023-09-18T03:29:53;14.30;;;8.75;;
59788;SDS011;47353;51.614;5.530;2023-09-18T03:32:21;13.20;;;8.80;;
59788;SDS011;47353;51.614;5.530;2023-09-18T03:34:50;14.07;;;8.57;;
59788;SDS011;47353;51.614;5.530;2023-09-18T03:37:16;11.85;;;8.20;;
59788;SDS011;47353;51.614;5.530;2023-09-18T03:39:41;13.27;;;8.55;;
59788;SDS011;47353;51.614;5.530;2023-09-18T03:42:06;14.48;;;8.48;;
59788;SDS011;47353;51.614;5.530;2023-09-18T03:44:32;16.70;;;8.93;;
59788;SDS011;47353;51.614;5.530;2023-09-18T03:46:57;15.70;;;8.63;;
59788;SDS011;47353;51.614;5.530;2023-09-18T03:49:22;15.27;;;8.88;;
59788;SDS011;47353;51.614;5.530;2023-09-18T03:51:48;15.55;;;8.27;;
59788;SDS011;47353;51.614;5.530;2023-09-18T03:54:13;20.88;;;9.48;;
59788;SDS011;47353;51.614;5.530;2023-09-18T03:56:39;14.93;;;8.65;;
59788;SDS011;47353;51.614;5.530;2023-09-18T03:59:05;15.38;;;8.50;;
59788;SDS011;47353;51.614;5.530;2023-09-18T04:01:31;16.17;;;8.93;;
59788;SDS011;47353;51.614;5.530;2023-09-18T04:03:56;12.68;;;8.73;;
59788;SDS011;47353;51.614;5.530;2023-09-18T04:06:23;15.68;;;8.00;;
59788;SDS011;47353;51.614;5.530;2023-09-18T04:08:51;12.98;;;8.70;;
59788;SDS011;47353;51.614;5.530;2023-09-18T04:11:17;15.63;;;8.68;;
59788;SDS011;47353;51.614;5.530;2023-09-18T04:13:44;12.65;;;7.78;;
59788;SDS011;47353;51.614;5.530;2023-09-18T04:16:10;14.35;;;8.43;;
59788;SDS011;47353;51.614;5.530;2023-09-18T04:18:41;13.35;;;7.88;;
59788;SDS011;47353;51.614;5.530;2023-09-18T04:21:08;13.60;;;7.57;;
59788;SDS011;47353;51.614;5.530;2023-09-18T04:23:34;17.73;;;8.40;;
59788;SDS011;47353;51.614;5.530;2023-09-18T04:26:01;12.15;;;8.15;;
59788;SDS011;47353;51.614;5.530;2023-09-18T04:28:27;13.65;;;8.50;;
59788;SDS011;47353;51.614;5.530;2023-09-18T04:30:52;16.40;;;9.07;;
59788;SDS011;47353;51.614;5.530;2023-09-18T04:33:18;18.45;;;8.50;;
59788;SDS011;47353;51.614;5.530;2023-09-18T04:35:43;15.90;;;8.63;;
59788;SDS011;47353;51.614;5.530;2023-09-18T04:38:09;16.15;;;9.07;;
59788;SDS011;47353;51.614;5.530;2023-09-18T04:40:36;12.95;;;8.50;;
59788;SDS011;47353;51.614;5.530;2023-09-18T04:43:01;14.50;;;8.80;;
59788;SDS011;47353;51.614;5.530;2023-09-18T04:45:29;14.50;;;9.10;;
59788;SDS011;47353;51.614;5.530;2023-09-18T04:47:55;14.73;;;9.43;;
59788;SDS011;47353;51.614;5.530;2023-09-18T04:50:21;14.40;;;9.18;;
59788;SDS011;47353;51.614;5.530;2023-09-18T04:52:47;17.77;;;9.43;;
59788;SDS011;47353;51.614;5.530;2023-09-18T04:55:13;16.88;;;9.32;;
59788;SDS011;47353;51.614;5.530;2023-09-18T04:57:39;16.48;;;9.55;;
59788;SDS011;47353;51.614;5.530;2023-09-18T05:00:05;16.90;;;8.98;;
59788;SDS011;47353;51.614;5.530;2023-09-18T05:02:33;11.90;;;9.13;;
59788;SDS011;47353;51.614;5.530;2023-09-18T05:04:59;14.45;;;9.43;;
59788;SDS011;47353;51.614;5.530;2023-09-18T05:07:25;12.25;;;9.43;;
59788;SDS011;47353;51.614;5.530;2023-09-18T05:09:51;13.98;;;9.48;;
59788;SDS011;47353;51.614;5.530;2023-09-18T05:12:17;14.07;;;9.55;;
59788;SDS011;47353;51.614;5.530;2023-09-18T05:14:42;16.23;;;9.75;;
59788;SDS011;47353;51.614;5.530;2023-09-18T05:17:13;15.05;;;9.50;;
59788;SDS011;47353;51.614;5.530;2023-09-18T05:19:40;18.55;;;10.07;;
59788;SDS011;47353;51.614;5.530;2023-09-18T05:22:06;16.08;;;10.57;;
59788;SDS011;47353;51.614;5.530;2023-09-18T05:24:31;15.63;;;10.52;;
59788;SDS011;47353;51.614;5.530;2023-09-18T05:26:57;16.38;;;10.93;;
59788;SDS011;47353;51.614;5.530;2023-09-18T05:29:22;16.77;;;11.07;;
59788;SDS011;47353;51.614;5.530;2023-09-18T05:31:48;13.57;;;11.00;;
59788;SDS011;47353;51.614;5.530;2023-09-18T05:34:14;17.92;;;10.02;;
59788;SDS011;47353;51.614;5.530;2023-09-18T05:36:39;17.33;;;8.93;;
59788;SDS011;47353;51.614;5.530;2023-09-18T05:39:05;10.65;;;7.10;;
59788;SDS011;47353;51.614;5.530;2023-09-18T05:41:35;9.60;;;6.85;;
59788;SDS011;47353;51.614;5.530;2023-09-18T05:44:01;10.18;;;5.05;;
59788;SDS011;47353;51.614;5.530;2023-09-18T05:46:28;8.93;;;4.80;;
59788;SDS011;47353;51.614;5.530;2023-09-18T05:48:54;9.38;;;4.40;;
59788;SDS011;47353;51.614;5.530;2023-09-18T05:51:21;7.18;;;4.03;;
59788;SDS011;47353;51.614;5.530;2023-09-18T05:53:47;8.13;;;4.05;;
59788;SDS011;47353;51.614;5.530;2023-09-18T05:56:13;8.93;;;3.50;;
59788;SDS011;47353;51.614;5.530;2023-09-18T05:58:39;5.70;;;3.30;;
59788;SDS011;47353;51.614;5.530;2023-09-18T06:01:06;6.38;;;3.30;;
59788;SDS011;47353;51.614;5.530;2023-09-18T06:03:32;5.93;;;3.50;;
59788;SDS011;47353;51.614;5.530;2023-09-18T06:06:01;7.60;;;3.20;;
59788;SDS011;47353;51.614;5.530;2023-09-18T06:08:26;5.82;;;2.80;;
59788;SDS011;47353;51.614;5.530;2023-09-18T06:10:53;6.90;;;2.97;;
59788;SDS011;47353;51.614;5.530;2023-09-18T06:13:20;7.55;;;2.90;;
59788;SDS011;47353;51.614;5.530;2023-09-18T06:15:45;5.63;;;2.63;;
59788;SDS011;47353;51.614;5.530;2023-09-18T06:18:11;3.83;;;2.25;;
59788;SDS011;47353;51.614;5.530;2023-09-18T06:20:37;5.65;;;2.40;;
59788;SDS011;47353;51.614;5.530;2023-09-18T06:23:02;4.35;;;2.10;;
59788;SDS011;47353;51.614;5.530;2023-09-18T06:25:28;4.55;;;2.50;;
59788;SDS011;47353;51.614;5.530;2023-09-18T06:27:56;6.28;;;2.20;;
59788;SDS011;47353;51.614;5.530;2023-09-18T06:30:21;3.58;;;2.15;;
59788;SDS011;47353;51.614;5.530;2023-09-18T06:32:47;4.20;;;2.30;;
59788;SDS011;47353;51.614;5.530;2023-09-18T06:35:13;9.07;;;2.60;;
59788;SDS011;47353;51.614;5.530;2023-09-18T06:37:38;4.93;;;2.60;;
59788;SDS011;47353;51.614;5.530;2023-09-18T06:40:03;5.05;;;2.20;;
59788;SDS011;47353;51.614;5.530;2023-09-18T06:42:30;4.93;;;1.98;;
59788;SDS011;47353;51.614;5.530;2023-09-18T06:44:56;6.47;;;2.20;;
59788;SDS011;47353;51.614;5.530;2023-09-18T06:47:21;5.75;;;2.08;;
59788;SDS011;47353;51.614;5.530;2023-09-18T06:49:49;4.57;;;1.95;;
59788;SDS011;47353;51.614;5.530;2023-09-18T06:52:14;5.10;;;2.15;;
59788;SDS011;47353;51.614;5.530;2023-09-18T06:54:40;3.85;;;2.08;;
59788;SDS011;47353;51.614;5.530;2023-09-18T06:57:05;9.32;;;2.65;;
59788;SDS011;47353;51.614;5.530;2023-09-18T06:59:31;4.90;;;2.33;;
59788;SDS011;47353;51.614;5.530;2023-09-18T07:01:59;4.03;;;2.33;;
59788;SDS011;47353;51.614;5.530;2023-09-18T07:04:25;5.35;;;2.95;;
59788;SDS011;47353;51.614;5.530;2023-09-18T07:06:51;3.67;;;2.08;;
59788;SDS011;47353;51.614;5.530;2023-09-18T07:09:18;4.72;;;2.15;;
59788;SDS011;47353;51.614;5.530;2023-09-18T07:11:44;5.50;;;2.17;;
59788;SDS011;47353;51.614;5.530;2023-09-18T07:14:10;3.47;;;2.20;;
59788;SDS011;47353;51.614;5.530;2023-09-18T07:16:35;6.40;;;2.50;;
59788;SDS011;47353;51.614;5.530;2023-09-18T07:19:01;6.32;;;1.95;;
59788;SDS011;47353;51.614;5.530;2023-09-18T07:21:30;2.90;;;2.00;;
59788;SDS011;47353;51.614;5.530;2023-09-18T07:23:56;6.90;;;2.10;;
59788;SDS011;47353;51.614;5.530;2023-09-18T07:26:22;5.90;;;2.22;;
59788;SDS011;47353;51.614;5.530;2023-09-18T07:28:47;6.75;;;2.42;;
59788;SDS011;47353;51.614;5.530;2023-09-18T07:31:13;5.82;;;2.42;;
59788;SDS011;47353;51.614;5.530;2023-09-18T07:33:39;4.53;;;2.13;;
59788;SDS011;47353;51.614;5.530;2023-09-18T07:36:06;7.75;;;2.40;;
59788;SDS011;47353;51.614;5.530;2023-09-18T07:38:31;8.65;;;2.30;;
59788;SDS011;47353;51.614;5.530;2023-09-18T07:40:58;7.25;;;2.00;;
59788;SDS011;47353;51.614;5.530;2023-09-18T07:43:24;4.65;;;2.00;;
59788;SDS011;47353;51.614;5.530;2023-09-18T07:45:49;3.38;;;1.80;;
59788;SDS011;47353;51.614;5.530;2023-09-18T07:48:15;8.15;;;2.15;;
59788;SDS011;47353;51.614;5.530;2023-09-18T07:50:44;3.28;;;1.92;;
59788;SDS011;47353;51.614;5.530;2023-09-18T07:53:10;3.97;;;2.30;;
59788;SDS011;47353;51.614;5.530;2023-09-18T07:55:36;8.02;;;2.40;;
59788;SDS011;47353;51.614;5.530;2023-09-18T07:58:01;5.88;;;2.33;;
59788;SDS011;47353;51.614;5.530;2023-09-18T08:00:28;5.88;;;1.90;;
59788;SDS011;47353;51.614;5.530;2023-09-18T08:02:54;6.05;;;2.10;;
59788;SDS011;47353;51.614;5.530;2023-09-18T08:05:25;4.25;;;2.17;;
59788;SDS011;47353;51.614;5.530;2023-09-18T08:07:55;8.80;;;2.28;;
59788;SDS011;47353;51.614;5.530;2023-09-18T08:10:21;4.90;;;2.10;;
59788;SDS011;47353;51.614;5.530;2023-09-18T08:12:48;4.22;;;1.90;;
59788;SDS011;47353;51.614;5.530;2023-09-18T08:15:15;6.35;;;1.83;;
59788;SDS011;47353;51.614;5.530;2023-09-18T08:17:40;4.70;;;2.20;;
59788;SDS011;47353;51.614;5.530;2023-09-18T08:20:06;4.38;;;1.92;;
59788;SDS011;47353;51.614;5.530;2023-09-18T08:22:38;5.35;;;2.10;;
59788;SDS011;47353;51.614;5.530;2023-09-18T08:25:04;5.28;;;2.00;;
59788;SDS011;47353;51.614;5.530;2023-09-18T08:27:33;3.53;;;1.80;;
59788;SDS011;47353;51.614;5.530;2023-09-18T08:29:58;5.30;;;1.98;;
59788;SDS011;47353;51.614;5.530;2023-09-18T08:32:24;2.38;;;1.70;;
59788;SDS011;47353;51.614;5.530;2023-09-18T08:34:49;11.73;;;2.30;;
59788;SDS011;47353;51.614;5.530;2023-09-18T08:37:14;6.65;;;1.75;;
59788;SDS011;47353;51.614;5.530;2023-09-18T08:39:40;5.70;;;1.88;;
59788;SDS011;47353;51.614;5.530;2023-09-18T08:42:06;6.45;;;2.13;;
59788;SDS011;47353;51.614;5.530;2023-09-18T08:44:34;6.80;;;1.95;;
59788;SDS011;47353;51.614;5.530;2023-09-18T08:47:03;4.45;;;1.70;;
59788;SDS011;47353;51.614;5.530;2023-09-18T08:49:31;5.43;;;1.80;;
59788;SDS011;47353;51.614;5.530;2023-09-18T08:51:58;3.40;;;1.83;;
59788;SDS011;47353;51.614;5.530;2023-09-18T08:54:25;3.25;;;1.70;;
59788;SDS011;47353;51.614;5.530;2023-09-18T08:56:51;2.42;;;1.70;;
59788;SDS011;47353;51.614;5.530;2023-09-18T08:59:17;3.08;;;1.60;;
59788;SDS011;47353;51.614;5.530;2023-09-18T09:01:45;4.85;;;1.70;;
59788;SDS011;47353;51.614;5.530;2023-09-18T09:04:10;2.70;;;1.77;;
59788;SDS011;47353;51.614;5.530;2023-09-18T09:06:36;2.42;;;1.63;;
59788;SDS011;47353;51.614;5.530;2023-09-18T09:09:02;3.78;;;1.73;;
59788;SDS011;47353;51.614;5.530;2023-09-18T09:11:27;4.47;;;1.80;;
59788;SDS011;47353;51.614;5.530;2023-09-18T09:14:09;2.83;;;1.63;;
59788;SDS011;47353;51.614;5.530;2023-09-18T09:16:46;2.17;;;1.38;;
59788;SDS011;47353;51.614;5.530;2023-09-18T09:19:13;3.78;;;1.50;;
59788;SDS011;47353;51.614;5.530;2023-09-18T09:21:41;8.27;;;1.70;;
59788;SDS011;47353;51.614;5.530;2023-09-18T09:24:08;8.73;;;1.77;;
59788;SDS011;47353;51.614;5.530;2023-09-18T09:26:38;6.28;;;1.63;;
59788;SDS011;47353;51.614;5.530;2023-09-18T09:29:17;6.72;;;1.80;;
59788;SDS011;47353;51.614;5.530;2023-09-18T09:31:45;4.05;;;1.60;;
59788;SDS011;47353;51.614;5.530;2023-09-18T09:34:11;12.10;;;2.28;;
59788;SDS011;47353;51.614;5.530;2023-09-18T09:36:50;4.88;;;2.10;;
59788;SDS011;47353;51.614;5.530;2023-09-18T09:39:17;8.32;;;1.80;;
59788;SDS011;47353;51.614;5.530;2023-09-18T09:41:46;4.45;;;1.90;;
59788;SDS011;47353;51.614;5.530;2023-09-18T09:44:14;5.03;;;2.35;;
59788;SDS011;47353;51.614;5.530;2023-09-18T09:46:46;6.45;;;2.50;;
59788;SDS011;47353;51.614;5.530;2023-09-18T09:49:13;4.47;;;2.20;;
59788;SDS011;47353;51.614;5.530;2023-09-18T09:51:40;5.32;;;1.98;;
59788;SDS011;47353;51.614;5.530;2023-09-18T09:54:07;6.28;;;2.30;;
59788;SDS011;47353;51.614;5.530;2023-09-18T09:56:40;6.43;;;1.95;;
59788;SDS011;47353;51.614;5.530;2023-09-18T09:59:08;4.75;;;2.00;;
59788;SDS011;47353;51.614;5.530;2023-09-18T10:01:36;6.93;;;2.10;;
59788;SDS011;47353;51.614;5.530;2023-09-18T10:04:08;7.05;;;2.10;;
59788;SDS011;47353;51.614;5.530;2023-09-18T10:06:36;5.95;;;2.00;;
59788;SDS011;47353;51.614;5.530;2023-09-18T10:09:03;7.40;;;2.13;;
59788;SDS011;47353;51.614;5.530;2023-09-18T10:11:33;5.85;;;2.25;;
59788;SDS011;47353;51.614;5.530;2023-09-18T10:14:04;6.15;;;2.10;;
59788;SDS011;47353;51.614;5.530;2023-09-18T10:16:35;4.85;;;2.05;;
59788;SDS011;47353;51.614;5.530;2023-09-18T10:24:38;5.60;;;2.30;;
59788;SDS011;47353;51.614;5.530;2023-09-18T10:27:06;5.50;;;2.50;;
59788;SDS011;47353;51.614;5.530;2023-09-18T10:29:35;4.28;;;2.10;;
59788;SDS011;47353;51.614;5.530;2023-09-18T10:32:02;5.78;;;2.20;;
59788;SDS011;47353;51.614;5.530;2023-09-18T10:34:29;4.13;;;2.15;;
59788;SDS011;47353;51.614;5.530;2023-09-18T10:36:56;8.38;;;2.20;;
59788;SDS011;47353;51.614;5.530;2023-09-18T10:39:25;6.90;;;2.50;;
59788;SDS011;47353;51.614;5.530;2023-09-18T10:41:52;4.65;;;2.17;;
59788;SDS011;47353;51.614;5.530;2023-09-18T10:44:19;4.85;;;1.80;;
59788;SDS011;47353;51.614;5.530;2023-09-18T10:46:48;6.68;;;2.28;;
59788;SDS011;47353;51.614;5.530;2023-09-18T10:49:17;5.20;;;2.25;;
59788;SDS011;47353;51.614;5.530;2023-09-18T10:51:43;7.43;;;2.10;;
59788;SDS011;47353;51.614;5.530;2023-09-18T10:54:11;6.82;;;2.33;;
59788;SDS011;47353;51.614;5.530;2023-09-18T10:56:43;7.53;;;2.30;;
59788;SDS011;47353;51.614;5.530;2023-09-18T10:59:09;6.72;;;2.20;;
59788;SDS011;47353;51.614;5.530;2023-09-18T11:01:35;7.38;;;2.67;;
59788;SDS011;47353;51.614;5.530;2023-09-18T11:04:04;6.65;;;2.80;;
59788;SDS011;47353;51.614;5.530;2023-09-18T11:09:19;8.05;;;2.97;;
59788;SDS011;47353;51.614;5.530;2023-09-18T11:12:08;6.10;;;2.70;;
59788;SDS011;47353;51.614;5.530;2023-09-18T11:14:48;7.68;;;2.90;;
59788;SDS011;47353;51.614;5.530;2023-09-18T11:17:33;5.07;;;2.72;;
59788;SDS011;47353;51.614;5.530;2023-09-18T11:22:46;4.80;;;3.10;;
59788;SDS011;47353;51.614;5.530;2023-09-18T11:28:02;4.90;;;3.05;;
59788;SDS011;47353;51.614;5.530;2023-09-18T11:30:28;4.18;;;2.92;;
59788;SDS011;47353;51.614;5.530;2023-09-18T11:32:54;5.45;;;2.85;;
59788;SDS011;47353;51.614;5.530;2023-09-18T11:35:21;6.18;;;3.00;;
59788;SDS011;47353;51.614;5.530;2023-09-18T11:37:47;4.72;;;2.88;;
59788;SDS011;47353;51.614;5.530;2023-09-18T11:40:32;5.65;;;3.00;;
59788;SDS011;47353;51.614;5.530;2023-09-18T11:45:50;5.50;;;3.20;;
59788;SDS011;47353;51.614;5.530;2023-09-18T11:48:20;10.93;;;2.80;;
59788;SDS011;47353;51.614;5.530;2023-09-18T11:50:46;6.35;;;3.20;;
59788;SDS011;47353;51.614;5.530;2023-09-18T11:53:16;6.53;;;2.60;;
59788;SDS011;47353;51.614;5.530;2023-09-18T11:55:45;8.38;;;3.00;;
59788;SDS011;47353;51.614;5.530;2023-09-18T11:58:11;9.40;;;2.70;;
59788;SDS011;47353;51.614;5.530;2023-09-18T12:00:37;5.07;;;2.53;;
59788;SDS011;47353;51.614;5.530;2023-09-18T12:03:20;4.70;;;2.30;;
59788;SDS011;47353;51.614;5.530;2023-09-18T12:05:58;4.53;;;2.40;;
59788;SDS011;47353;51.614;5.530;2023-09-18T12:08:26;8.88;;;2.90;;
59788;SDS011;47353;51.614;5.530;2023-09-18T12:10:55;5.10;;;2.80;;
59788;SDS011;47353;51.614;5.530;2023-09-18T12:13:21;5.82;;;2.92;;
59788;SDS011;47353;51.614;5.530;2023-09-18T12:15:51;6.05;;;2.70;;
59788;SDS011;47353;51.614;5.530;2023-09-18T12:18:21;7.88;;;2.70;;
59788;SDS011;47353;51.614;5.530;2023-09-18T12:20:49;6.05;;;2.55;;
59788;SDS011;47353;51.614;5.530;2023-09-18T12:23:16;6.20;;;2.30;;
59788;SDS011;47353;51.614;5.530;2023-09-18T12:25:45;6.80;;;2.25;;
59788;SDS011;47353;51.614;5.530;2023-09-18T12:28:13;3.55;;;2.33;;
59788;SDS011;47353;51.614;5.530;2023-09-18T12:30:39;5.57;;;2.30;;
59788;SDS011;47353;51.614;5.530;2023-09-18T12:33:05;5.28;;;2.28;;
59788;SDS011;47353;51.614;5.530;2023-09-18T12:35:30;9.27;;;2.10;;
59788;SDS011;47353;51.614;5.530;2023-09-18T12:37:59;4.60;;;2.15;;
59788;SDS011;47353;51.614;5.530;2023-09-18T12:40:29;5.30;;;2.28;;
59788;SDS011;47353;51.614;5.530;2023-09-18T12:42:58;4.20;;;2.43;;
59788;SDS011;47353;51.614;5.530;2023-09-18T12:45:24;4.45;;;2.08;;
59788;SDS011;47353;51.614;5.530;2023-09-18T12:47:50;5.38;;;2.28;;
59788;SDS011;47353;51.614;5.530;2023-09-18T12:50:16;4.18;;;2.08;;
59788;SDS011;47353;51.614;5.530;2023-09-18T12:52:42;6.70;;;2.30;;
59788;SDS011;47353;51.614;5.530;2023-09-18T12:55:08;7.85;;;2.10;;
59788;SDS011;47353;51.614;5.530;2023-09-18T12:57:33;5.82;;;2.10;;
59788;SDS011;47353;51.614;5.530;2023-09-18T12:59:59;5.90;;;2.33;;
59788;SDS011;47353;51.614;5.530;2023-09-18T13:02:35;4.60;;;2.10;;
59788;SDS011;47353;51.614;5.530;2023-09-18T13:05:01;3.53;;;1.90;;
59788;SDS011;47353;51.614;5.530;2023-09-18T13:07:26;2.85;;;2.13;;
59788;SDS011;47353;51.614;5.530;2023-09-18T13:10:03;4.53;;;2.30;;
59788;SDS011;47353;51.614;5.530;2023-09-18T13:12:46;3.25;;;1.85;;
59788;SDS011;47353;51.614;5.530;2023-09-18T13:15:27;4.78;;;2.10;;
59788;SDS011;47353;51.614;5.530;2023-09-18T13:17:53;4.78;;;2.20;;
59788;SDS011;47353;51.614;5.530;2023-09-18T13:20:23;5.63;;;2.00;;
59788;SDS011;47353;51.614;5.530;2023-09-18T13:22:51;3.10;;;1.77;;
59788;SDS011;47353;51.614;5.530;2023-09-18T13:25:40;5.45;;;1.90;;
59788;SDS011;47353;51.614;5.530;2023-09-18T13:28:08;3.22;;;1.75;;
59788;SDS011;47353;51.614;5.530;2023-09-18T13:30:35;3.67;;;1.90;;
59788;SDS011;47353;51.614;5.530;2023-09-18T13:33:06;5.70;;;2.08;;
59788;SDS011;47353;51.614;5.530;2023-09-18T13:35:41;5.82;;;2.10;;
59788;SDS011;47353;51.614;5.530;2023-09-18T13:38:08;4.10;;;1.75;;
59788;SDS011;47353;51.614;5.530;2023-09-18T13:40:36;4.43;;;2.15;;
59788;SDS011;47353;51.614;5.530;2023-09-18T13:43:05;3.78;;;2.17;;
59788;SDS011;47353;51.614;5.530;2023-09-18T13:45:32;5.10;;;1.80;;
59788;SDS011;47353;51.614;5.530;2023-09-18T13:48:00;5.03;;;1.95;;
59788;SDS011;47353;51.614;5.530;2023-09-18T13:50:25;3.95;;;1.75;;
59788;SDS011;47353;51.614;5.530;2023-09-18T13:52:51;4.32;;;1.80;;
59788;SDS011;47353;51.614;5.530;2023-09-18T13:55:16;3.65;;;1.80;;
59788;SDS011;47353;51.614;5.530;2023-09-18T13:57:42;3.63;;;1.90;;
59788;SDS011;47353;51.614;5.530;2023-09-18T14:00:08;3.03;;;1.52;;
59788;SDS011;47353;51.614;5.530;2023-09-18T14:02:37;3.38;;;1.70;;
59788;SDS011;47353;51.614;5.530;2023-09-18T14:05:03;5.45;;;2.10;;
59788;SDS011;47353;51.614;5.530;2023-09-18T14:07:29;3.55;;;1.70;;
59788;SDS011;47353;51.614;5.530;2023-09-18T14:09:54;3.65;;;1.83;;
59788;SDS011;47353;51.614;5.530;2023-09-18T14:12:20;4.70;;;1.83;;
59788;SDS011;47353;51.614;5.530;2023-09-18T14:14:46;5.00;;;1.70;;
59788;SDS011;47353;51.614;5.530;2023-09-18T14:17:11;5.03;;;1.70;;
59788;SDS011;47353;51.614;5.530;2023-09-18T14:19:37;3.72;;;1.70;;
59788;SDS011;47353;51.614;5.530;2023-09-18T14:22:06;5.07;;;1.77;;
59788;SDS011;47353;51.614;5.530;2023-09-18T14:24:33;3.40;;;1.58;;
59788;SDS011;47353;51.614;5.530;2023-09-18T14:26:59;4.47;;;1.70;;
59788;SDS011;47353;51.614;5.530;2023-09-18T14:29:25;4.80;;;1.67;;
59788;SDS011;47353;51.614;5.530;2023-09-18T14:31:52;4.28;;;1.38;;
59788;SDS011;47353;51.614;5.530;2023-09-18T14:34:17;2.63;;;1.55;;
59788;SDS011;47353;51.614;5.530;2023-09-18T14:36:43;4.25;;;1.70;;
59788;SDS011;47353;51.614;5.530;2023-09-18T14:39:09;3.13;;;1.48;;
59788;SDS011;47353;51.614;5.530;2023-09-18T14:41:38;4.35;;;1.88;;
59788;SDS011;47353;51.614;5.530;2023-09-18T14:44:04;3.17;;;1.50;;
59788;SDS011;47353;51.614;5.530;2023-09-18T14:46:31;3.08;;;1.65;;
59788;SDS011;47353;51.614;5.530;2023-09-18T14:49:00;3.92;;;1.75;;
59788;SDS011;47353;51.614;5.530;2023-09-18T14:51:26;3.08;;;1.60;;
59788;SDS011;47353;51.614;5.530;2023-09-18T14:53:56;3.03;;;1.63;;
59788;SDS011;47353;51.614;5.530;2023-09-18T14:56:22;5.05;;;1.70;;